Intervale, NH (03845)

12:48 PM EDT on August 28, 2016 (GMT -0400)
Pine Street, North Conway, NH | | Change Station

Elev 534 ft 44.06 °N, 71.13 °W | Updated 11 seconds ago

Scattered Clouds
Scattered Clouds
80.0 °F
Feels Like 81 °F
N
0.0
Wind Variable Wind from SSW
Gusts 8.0 mph

Today
High -- | Low -- °F
--% Chance of Precip.
Yesterday
High -- | Low -- °F
Precip. -- in
Pressure 30.26 in
Visibility 10.0 miles
Clouds Few 4100 ft
Scattered Clouds 11000 ft
Heat Index 81 °F
Dew Point 63 °F
Humidity 56%
Rainfall 0.00 in
Snow Depth Not available.
6:03 AM 7:26 PM
Waning Crescent, 14% visible
METAR KIZG 281554Z AUTO 22007KT 10SM FEW041 SCT110 26/16 A3026 RMK AO2 SLP245 T02610156 $
Pressure 30.26 in
Visibility 10.0 miles
Clouds Few 4100 ft
Scattered Clouds 11000 ft
Heat Index 81 °F
Dew Point 63 °F
Humidity 56%
Rainfall 0.00 in
Snow Depth Not available.
6:03 AM 7:26 PM
Waning Crescent, 14% visible
METAR KIZG 281554Z AUTO 22007KT 10SM FEW041 SCT110 26/16 A3026 RMK AO2 SLP245 T02610156 $

10-Day Weather Forecast

Almanac

Astronomy

Aug. 28, 2016 Rise Set
Actual Time
Civil Twilight
Nautical Twilight
Astronomical Twilight
Moon
Length of Visible Light
Length of Day
Tomorrow will be .
, % of the Moon is Illuminated

Today's Extremes

State Highs State Lows

Community

WunderPhotos

Upload Photos

1,935,627 photos uploaded!

WunderBlog® & News

Nearby

Air Quality

  Air Quality AQ Index Pollutant
Not available.

Snow Depth

Station Depth Elevation

Earthquake Activity

City Distance Mag. Time & Date
Minimum magnitude displayed is 2.5.

Coastal Water Temperatures

Place Temperature

Stations

Nearby Weather Stations

Station Location Temp. Windchill Dew Point Humidity Wind Precip. Elev Updated Type
                   

Watches & Warnings

There are currently no watches in effect.